Time;durP1;ratioP1;P1;durP2;ratioP2;P2;SDS_P1;SDS_P2;PMS_P1;PMS_P2;Temp;Humidity;BMP_temperature;BMP_pressure;BME280_temperature;BME280_humidity;BME280_pressure;Samples;Min_cycle;Max_cycle;Signal;HPM_P1;HPM_P2
2020/12/29 00:01:34;;;;;;;;;;;26.70;44.50;;;;;;5094740;28;19916;-65
2020/12/29 00:03:59;;;;;;;;;;;26.70;44.40;;;;;;5080557;28;19916;-66
2020/12/29 00:06:25;;;;;;;;;;;26.70;44.50;;;;;;5086549;28;19966;-74
2020/12/29 00:08:50;;;;;;;;;;;26.70;44.40;;;;;;5074397;28;20371;-66
2020/12/29 00:11:16;;;;;;;;;;;26.70;44.40;;;;;;5083792;28;19957;-67
2020/12/29 00:13:41;;;;;;;;;;;26.70;44.30;;;;;;5082025;28;19976;-63
2020/12/29 00:16:06;;;;;;;;;;;26.70;44.30;;;;;;5073912;28;19913;-68
2020/12/29 00:18:32;;;;;;;;;;;26.70;44.40;;;;;;5074100;28;19916;-67
2020/12/29 00:20:57;;;;;;;;;;;26.70;44.50;;;;;;5075129;28;20316;-66
2020/12/29 00:23:23;;;;;;;;;;;26.60;44.60;;;;;;5082216;28;19963;-66
2020/12/29 00:25:48;;;;;;;;;;;26.60;44.50;;;;;;5094256;28;19919;-65
2020/12/29 00:28:14;;;;;;;;;;;26.60;44.40;;;;;;5092122;28;20489;-67
2020/12/29 00:30:39;;;;;;;;;;;26.60;44.30;;;;;;5093952;28;19908;-64
2020/12/29 00:33:05;;;;;;;;;;;26.70;44.40;;;;;;5081657;28;19913;-67
2020/12/29 00:35:30;;;;;;;;;;;26.70;44.00;;;;;;5093664;28;20627;-64
2020/12/29 00:37:55;;;;;;;;;;;26.70;44.00;;;;;;5093121;28;19916;-60
2020/12/29 00:40:21;;;;;;;;;;;26.70;43.90;;;;;;5088525;28;19916;-61
2020/12/29 00:42:46;;;;;;;;;;;26.70;44.10;;;;;;5077819;28;19924;-61
2020/12/29 00:45:12;;;;;;;;;;;26.70;44.20;;;;;;5093508;28;19908;-66
2020/12/29 00:47:37;;;;;;;;;;;26.70;43.90;;;;;;5081405;28;19912;-63
2020/12/29 00:50:03;;;;;;;;;;;26.70;44.10;;;;;;5093803;28;20349;-63
2020/12/29 00:52:28;;;;;;;;;;;26.70;44.00;;;;;;5091438;28;19908;-65
2020/12/29 00:54:54;;;;;;;;;;;26.70;44.10;;;;;;5073363;28;19908;-64
2020/12/29 00:57:19;;;;;;;;;;;26.70;44.10;;;;;;5073426;28;19909;-71
2020/12/29 00:59:44;;;;;;;;;;;26.60;44.00;;;;;;5082922;28;19916;-61
2020/12/29 01:02:10;;;;;;;;;;;26.60;44.00;;;;;;5092276;28;19912;-69
2020/12/29 01:04:35;;;;;;;;;;;26.60;44.60;;;;;;5079067;28;19947;-64
2020/12/29 01:07:01;;;;;;;;;;;26.60;43.90;;;;;;5074443;28;19967;-72
2020/12/29 01:09:27;;;;;;;;;;;26.70;43.90;;;;;;5088388;28;20285;-66
2020/12/29 01:11:52;;;;;;;;;;;26.70;43.90;;;;;;5079886;28;19913;-66
2020/12/29 01:14:18;;;;;;;;;;;26.70;43.70;;;;;;5091443;28;19955;-64
2020/12/29 01:16:45;;;;;;;;;;;26.70;43.80;;;;;;5093237;28;19915;-64
2020/12/29 01:19:10;;;;;;;;;;;26.70;43.80;;;;;;5076851;28;19912;-66
2020/12/29 01:21:35;;;;;;;;;;;26.70;43.70;;;;;;5077101;28;19918;-69
2020/12/29 01:24:01;;;;;;;;;;;26.70;43.90;;;;;;5078282;28;19981;-70
2020/12/29 01:26:26;;;;;;;;;;;26.70;44.00;;;;;;5080760;28;19926;-63
2020/12/29 01:28:52;;;;;;;;;;;26.70;43.90;;;;;;5091167;28;19924;-62
2020/12/29 01:31:25;;;;;;;;;;;26.70;43.90;;;;;;5093260;28;20273;-62
2020/12/29 01:33:50;;;;;;;;;;;26.70;43.80;;;;;;5086127;28;19916;-61
2020/12/29 01:36:15;;;;;;;;;;;26.80;43.60;;;;;;5098892;28;19966;-62
2020/12/29 01:38:41;;;;;;;;;;;26.70;43.60;;;;;;5080851;28;19912;-54
2020/12/29 01:41:06;;;;;;;;;;;26.70;43.60;;;;;;5082092;28;19916;-64
2020/12/29 01:43:32;;;;;;;;;;;26.70;43.70;;;;;;5090118;28;20378;-65
2020/12/29 01:45:57;;;;;;;;;;;26.70;43.50;;;;;;5099886;28;19995;-70
2020/12/29 01:48:24;;;;;;;;;;;26.70;43.60;;;;;;5099540;28;19908;-74
2020/12/29 01:50:50;;;;;;;;;;;26.70;43.40;;;;;;5099599;27;20373;-65
2020/12/29 01:53:15;;;;;;;;;;;26.70;43.60;;;;;;5091034;28;19913;-66
2020/12/29 01:55:41;;;;;;;;;;;26.70;43.40;;;;;;5089714;28;20270;-65
2020/12/29 01:58:07;;;;;;;;;;;26.70;43.40;;;;;;5091362;28;19920;-65
2020/12/29 02:00:32;;;;;;;;;;;26.70;43.10;;;;;;5076243;28;19912;-61
2020/12/29 02:02:58;;;;;;;;;;;26.80;43.20;;;;;;5065333;28;20018;-66
2020/12/29 02:05:24;;;;;;;;;;;26.70;43.20;;;;;;5075456;28;20299;-65
2020/12/29 02:07:49;;;;;;;;;;;26.70;43.20;;;;;;5083026;28;19921;-57
2020/12/29 02:10:15;;;;;;;;;;;26.70;43.40;;;;;;5098505;28;20285;-60
2020/12/29 02:12:40;;;;;;;;;;;26.70;43.40;;;;;;5084168;28;19919;-64
2020/12/29 02:15:06;;;;;;;;;;;26.60;43.50;;;;;;5079097;28;19923;-67
2020/12/29 02:17:32;;;;;;;;;;;26.60;43.80;;;;;;5081437;28;20248;-65
2020/12/29 02:19:57;;;;;;;;;;;26.60;43.80;;;;;;5099261;28;19916;-66
2020/12/29 02:22:23;;;;;;;;;;;26.70;43.70;;;;;;5098090;28;19916;-65
2020/12/29 02:24:55;;;;;;;;;;;26.70;43.70;;;;;;5094907;28;19923;-68
2020/12/29 02:27:21;;;;;;;;;;;26.70;43.80;;;;;;5098043;28;19980;-60
2020/12/29 02:29:46;;;;;;;;;;;26.70;43.90;;;;;;5096927;28;20011;-61
2020/12/29 02:32:12;;;;;;;;;;;26.70;43.40;;;;;;5099468;28;20362;-61
2020/12/29 02:34:38;;;;;;;;;;;26.60;43.30;;;;;;5092048;28;20738;-61
2020/12/29 02:37:04;;;;;;;;;;;26.50;43.40;;;;;;5093129;28;19986;-61
2020/12/29 02:39:31;;;;;;;;;;;26.50;43.50;;;;;;5093970;28;19913;-61
2020/12/29 02:41:56;;;;;;;;;;;26.50;43.80;;;;;;5082167;28;19908;-61
2020/12/29 02:44:21;;;;;;;;;;;26.40;43.80;;;;;;5099283;28;19927;-61
2020/12/29 02:46:48;;;;;;;;;;;26.40;43.70;;;;;;5092860;28;19963;-61
2020/12/29 02:49:13;;;;;;;;;;;26.40;43.70;;;;;;5087678;28;20345;-61
2020/12/29 02:51:39;;;;;;;;;;;26.40;43.60;;;;;;5075896;28;19912;-61
2020/12/29 02:54:04;;;;;;;;;;;26.40;43.60;;;;;;5090720;28;19908;-61
2020/12/29 02:56:29;;;;;;;;;;;26.40;43.50;;;;;;5096046;28;19948;-61
2020/12/29 02:58:55;;;;;;;;;;;26.40;43.50;;;;;;5095659;28;19908;-61
2020/12/29 03:01:20;;;;;;;;;;;26.40;43.50;;;;;;5095898;28;19908;-61
2020/12/29 03:03:46;;;;;;;;;;;26.40;43.40;;;;;;5082762;28;19916;-61
2020/12/29 03:06:11;;;;;;;;;;;26.40;43.40;;;;;;5075250;28;19912;-61
2020/12/29 03:08:37;;;;;;;;;;;26.40;43.40;;;;;;5076785;28;19912;-61
2020/12/29 03:11:03;;;;;;;;;;;26.40;43.30;;;;;;5075193;28;20057;-61
2020/12/29 03:13:28;;;;;;;;;;;26.40;43.20;;;;;;5086544;28;20362;-61
2020/12/29 03:15:54;;;;;;;;;;;26.30;43.20;;;;;;5088384;28;20003;-62
2020/12/29 03:18:19;;;;;;;;;;;26.40;43.30;;;;;;5085419;28;19935;-61
2020/12/29 03:20:45;;;;;;;;;;;26.40;43.20;;;;;;5095228;28;19918;-61
2020/12/29 03:23:10;;;;;;;;;;;26.40;43.10;;;;;;5087303;28;19977;-61
2020/12/29 03:25:36;;;;;;;;;;;26.40;43.20;;;;;;5075277;28;20268;-62
2020/12/29 03:28:02;;;;;;;;;;;26.30;43.10;;;;;;5075704;28;19927;-61
2020/12/29 03:30:27;;;;;;;;;;;26.30;43.00;;;;;;5090776;28;20002;-61
2020/12/29 03:32:53;;;;;;;;;;;26.30;43.10;;;;;;5089443;28;20332;-61
2020/12/29 03:35:18;;;;;;;;;;;26.30;43.00;;;;;;5093754;28;19951;-61
2020/12/29 03:37:44;;;;;;;;;;;26.30;43.00;;;;;;5094390;28;19912;-62
2020/12/29 03:40:09;;;;;;;;;;;26.30;42.90;;;;;;5094906;28;19920;-61
2020/12/29 03:42:34;;;;;;;;;;;26.30;43.00;;;;;;5087219;28;19967;-61
2020/12/29 03:45:00;;;;;;;;;;;26.20;43.00;;;;;;5074767;28;20397;-61
2020/12/29 03:47:25;;;;;;;;;;;26.20;43.00;;;;;;5076735;28;19917;-61
2020/12/29 03:49:51;;;;;;;;;;;26.20;43.00;;;;;;5087656;28;19917;-61
2020/12/29 03:52:16;;;;;;;;;;;26.20;42.90;;;;;;5074560;28;20358;-61
2020/12/29 03:54:42;;;;;;;;;;;26.20;42.80;;;;;;5074258;28;19947;-61
2020/12/29 03:57:07;;;;;;;;;;;26.20;42.90;;;;;;5088858;28;19912;-61
2020/12/29 03:59:33;;;;;;;;;;;26.20;42.80;;;;;;5074060;28;19999;-61
2020/12/29 04:01:58;;;;;;;;;;;26.20;42.70;;;;;;5074254;28;19908;-61
2020/12/29 04:04:23;;;;;;;;;;;26.20;42.60;;;;;;5092061;28;19920;-61
2020/12/29 04:06:49;;;;;;;;;;;26.20;42.70;;;;;;5094323;28;19979;-61
2020/12/29 04:09:14;;;;;;;;;;;26.20;42.70;;;;;;5078488;28;19934;-62
2020/12/29 04:11:40;;;;;;;;;;;26.20;42.70;;;;;;5094004;28;19934;-61
2020/12/29 04:14:05;;;;;;;;;;;26.20;42.60;;;;;;5074758;28;19962;-61
2020/12/29 04:16:31;;;;;;;;;;;26.20;42.60;;;;;;5084951;28;20363;-61
2020/12/29 04:18:56;;;;;;;;;;;26.20;42.60;;;;;;5078761;28;19916;-61
2020/12/29 04:21:22;;;;;;;;;;;26.20;42.60;;;;;;5073959;28;19962;-61
2020/12/29 04:23:47;;;;;;;;;;;26.20;42.50;;;;;;5074850;28;20310;-62
2020/12/29 04:26:13;;;;;;;;;;;26.20;42.50;;;;;;5073733;28;19961;-61
2020/12/29 04:28:38;;;;;;;;;;;26.20;42.30;;;;;;5074522;28;20027;-62
2020/12/29 04:31:04;;;;;;;;;;;26.20;42.30;;;;;;5074003;28;19908;-62
2020/12/29 04:33:29;;;;;;;;;;;26.20;42.40;;;;;;5083919;28;19995;-61
2020/12/29 04:35:55;;;;;;;;;;;26.10;42.40;;;;;;5093447;28;19919;-62
2020/12/29 04:38:20;;;;;;;;;;;26.20;42.40;;;;;;5088941;28;19939;-61
2020/12/29 04:40:46;;;;;;;;;;;26.20;42.30;;;;;;5082176;28;19923;-61
2020/12/29 04:43:11;;;;;;;;;;;26.20;42.30;;;;;;5073402;28;19946;-61
2020/12/29 04:45:36;;;;;;;;;;;26.10;42.30;;;;;;5073613;28;19930;-61
2020/12/29 04:48:02;;;;;;;;;;;26.20;42.30;;;;;;5086667;28;20281;-61
2020/12/29 04:50:30;;;;;;;;;;;26.20;42.30;;;;;;5073464;28;19909;-61
2020/12/29 04:52:56;;;;;;;;;;;26.10;42.20;;;;;;5079039;28;19951;-61
2020/12/29 04:55:29;;;;;;;;;;;26.10;42.20;;;;;;5093574;28;19965;-61
2020/12/29 04:57:54;;;;;;;;;;;26.10;42.20;;;;;;5088060;28;20007;-61
2020/12/29 05:00:20;;;;;;;;;;;26.10;42.20;;;;;;5073222;28;19940;-61
2020/12/29 05:02:45;;;;;;;;;;;26.10;42.20;;;;;;5077917;28;19920;-61
2020/12/29 05:05:11;;;;;;;;;;;26.10;42.30;;;;;;5078014;28;20718;-61
2020/12/29 05:07:37;;;;;;;;;;;26.10;42.20;;;;;;5082277;28;20341;-61
2020/12/29 05:10:04;;;;;;;;;;;26.10;42.20;;;;;;5086453;28;19978;-61
2020/12/29 05:12:30;;;;;;;;;;;26.10;42.10;;;;;;5074027;28;19959;-62
2020/12/29 05:14:55;;;;;;;;;;;26.10;42.30;;;;;;5093337;28;19948;-62
2020/12/29 05:17:21;;;;;;;;;;;26.10;42.10;;;;;;5091601;28;20275;-62
2020/12/29 05:19:46;;;;;;;;;;;26.10;42.00;;;;;;5080227;28;19960;-62
2020/12/29 05:22:11;;;;;;;;;;;26.10;41.90;;;;;;5053069;28;19955;-62
2020/12/29 05:24:37;;;;;;;;;;;26.10;42.00;;;;;;5072116;28;19924;-61
2020/12/29 05:27:02;;;;;;;;;;;26.10;41.90;;;;;;5088190;28;19908;-61
2020/12/29 05:29:29;;;;;;;;;;;26.10;41.90;;;;;;5069634;28;19920;-61
2020/12/29 05:31:55;;;;;;;;;;;26.10;41.90;;;;;;5054024;28;19908;-62
2020/12/29 05:34:24;;;;;;;;;;;26.10;41.80;;;;;;5086014;28;19912;-62
2020/12/29 05:36:50;;;;;;;;;;;26.10;41.90;;;;;;5093272;28;20002;-62
2020/12/29 05:39:15;;;;;;;;;;;26.10;41.90;;;;;;5089371;28;20049;-62
2020/12/29 05:41:42;;;;;;;;;;;26.10;42.00;;;;;;5093179;28;19908;-61
2020/12/29 05:44:08;;;;;;;;;;;26.10;42.00;;;;;;5076271;28;19936;-61
2020/12/29 05:46:34;;;;;;;;;;;26.10;41.90;;;;;;5091368;28;19987;-61
2020/12/29 05:48:59;;;;;;;;;;;26.10;41.90;;;;;;5078224;28;19959;-61
2020/12/29 05:51:25;;;;;;;;;;;26.10;41.80;;;;;;5075139;28;20279;-62
2020/12/29 05:53:51;;;;;;;;;;;26.10;41.80;;;;;;5072556;28;19947;-62
2020/12/29 05:56:17;;;;;;;;;;;26.10;41.80;;;;;;5072571;28;19995;-62
2020/12/29 05:58:42;;;;;;;;;;;26.00;41.80;;;;;;5078724;28;19916;-61
2020/12/29 06:01:08;;;;;;;;;;;26.10;41.80;;;;;;5072483;28;19915;-62
2020/12/29 06:03:33;;;;;;;;;;;26.10;41.80;;;;;;5083153;28;19928;-62
2020/12/29 06:05:59;;;;;;;;;;;26.10;41.70;;;;;;5091490;28;20434;-62
2020/12/29 06:08:26;;;;;;;;;;;26.10;41.70;;;;;;5081929;28;19913;-62
2020/12/29 06:10:58;;;;;;;;;;;26.10;41.70;;;;;;5090911;28;20298;-62
2020/12/29 06:13:26;;;;;;;;;;;26.10;41.70;;;;;;5072805;28;19920;-62
2020/12/29 06:15:55;;;;;;;;;;;26.00;41.70;;;;;;5072650;28;19987;-62
2020/12/29 06:18:23;;;;;;;;;;;26.00;41.80;;;;;;5081524;28;19916;-61
2020/12/29 06:20:52;;;;;;;;;;;26.00;41.80;;;;;;5076797;28;19924;-61
2020/12/29 06:23:17;;;;;;;;;;;26.00;41.70;;;;;;5091579;28;19920;-61
2020/12/29 06:25:43;;;;;;;;;;;26.10;41.60;;;;;;5080536;28;20251;-62
2020/12/29 06:28:08;;;;;;;;;;;26.10;41.60;;;;;;5089957;28;20289;-61
2020/12/29 06:30:34;;;;;;;;;;;26.10;41.60;;;;;;5089897;28;19913;-62
2020/12/29 06:32:59;;;;;;;;;;;26.00;41.60;;;;;;5076073;28;19915;-62
2020/12/29 06:35:25;;;;;;;;;;;26.00;41.60;;;;;;5095752;28;20324;-62
2020/12/29 06:38:03;;;;;;;;;;;26.00;41.70;;;;;;5079918;28;20328;-62
2020/12/29 06:40:29;;;;;;;;;;;26.10;41.60;;;;;;5076012;28;19912;-61
2020/12/29 06:42:54;;;;;;;;;;;26.00;41.50;;;;;;5075942;28;19956;-62
2020/12/29 06:45:20;;;;;;;;;;;26.00;41.50;;;;;;5074571;28;19954;-61
2020/12/29 06:47:46;;;;;;;;;;;26.10;41.50;;;;;;5076407;28;19919;-62
2020/12/29 06:50:28;;;;;;;;;;;26.00;41.40;;;;;;5075664;28;19912;-62
2020/12/29 06:52:54;;;;;;;;;;;26.00;41.40;;;;;;5080980;28;19916;-62
2020/12/29 06:55:20;;;;;;;;;;;26.00;41.50;;;;;;5091175;28;19958;-62
2020/12/29 06:57:46;;;;;;;;;;;26.00;41.50;;;;;;5075664;28;19940;-64
2020/12/29 07:00:11;;;;;;;;;;;26.00;41.40;;;;;;5083662;28;19912;-62
2020/12/29 07:02:38;;;;;;;;;;;26.00;41.40;;;;;;5095829;28;19973;-61
2020/12/29 07:05:16;;;;;;;;;;;26.00;41.40;;;;;;5095921;28;19908;-62
2020/12/29 07:07:45;;;;;;;;;;;26.00;41.40;;;;;;5091529;28;19912;-61
2020/12/29 07:10:14;;;;;;;;;;;26.00;41.20;;;;;;5091475;28;19918;-62
2020/12/29 07:12:43;;;;;;;;;;;26.10;41.30;;;;;;5090826;28;19916;-62
2020/12/29 07:15:09;;;;;;;;;;;26.00;41.30;;;;;;5076255;28;20425;-61
2020/12/29 07:17:34;;;;;;;;;;;26.00;41.30;;;;;;5077371;28;19974;-62
2020/12/29 07:19:59;;;;;;;;;;;26.00;41.40;;;;;;5095561;28;19915;-62
2020/12/29 07:22:25;;;;;;;;;;;26.00;41.30;;;;;;5083486;28;19965;-61
2020/12/29 07:24:51;;;;;;;;;;;25.90;41.30;;;;;;5075185;28;20289;-61
2020/12/29 07:27:19;;;;;;;;;;;25.90;41.30;;;;;;5075983;28;19921;-61
2020/12/29 07:29:58;;;;;;;;;;;26.00;41.30;;;;;;5075208;28;20003;-62
2020/12/29 07:32:24;;;;;;;;;;;25.90;41.30;;;;;;5077043;28;19915;-62
2020/12/29 07:34:49;;;;;;;;;;;25.90;41.30;;;;;;5093442;28;19916;-62
2020/12/29 07:37:15;;;;;;;;;;;26.00;41.20;;;;;;5093505;28;19919;-62
2020/12/29 07:39:41;;;;;;;;;;;25.90;41.20;;;;;;5078635;28;19913;-61
2020/12/29 07:42:06;;;;;;;;;;;26.00;41.20;;;;;;5090848;28;19912;-62
2020/12/29 07:44:32;;;;;;;;;;;25.90;41.20;;;;;;5094700;28;19916;-64
2020/12/29 07:46:57;;;;;;;;;;;26.00;41.20;;;;;;5080893;28;19912;-61
2020/12/29 07:49:23;;;;;;;;;;;25.90;41.20;;;;;;5074660;28;20378;-61
2020/12/29 07:51:48;;;;;;;;;;;26.00;41.10;;;;;;5074436;28;20363;-62
2020/12/29 07:54:17;;;;;;;;;;;26.00;41.10;;;;;;5090661;28;20015;-61
2020/12/29 07:56:42;;;;;;;;;;;26.00;41.20;;;;;;5094881;28;19908;-62
2020/12/29 07:59:08;;;;;;;;;;;25.90;41.10;;;;;;5077346;28;19912;-62
2020/12/29 08:01:42;;;;;;;;;;;26.00;41.10;;;;;;5075268;28;19948;-61
2020/12/29 08:04:07;;;;;;;;;;;26.00;41.10;;;;;;5073889;28;20024;-62
2020/12/29 08:06:40;;;;;;;;;;;26.00;41.60;;;;;;5067886;28;20007;-62
2020/12/29 08:09:05;;;;;;;;;;;26.00;41.00;;;;;;5080179;28;20275;-61
2020/12/29 08:11:31;;;;;;;;;;;26.00;41.10;;;;;;5074274;28;20362;-61
2020/12/29 08:13:59;;;;;;;;;;;26.00;41.00;;;;;;5075090;28;19913;-61
2020/12/29 08:16:24;;;;;;;;;;;25.90;41.00;;;;;;5054336;28;19909;-61
2020/12/29 08:18:59;;;;;;;;;;;26.00;41.00;;;;;;5075760;28;19997;-61
2020/12/29 08:21:24;;;;;;;;;;;26.00;41.10;;;;;;5074146;28;19916;-61
2020/12/29 08:23:55;;;;;;;;;;;25.90;41.00;;;;;;5076244;28;19925;-61
2020/12/29 08:26:21;;;;;;;;;;;25.90;41.00;;;;;;5068657;28;20011;-61
2020/12/29 08:28:46;;;;;;;;;;;25.90;41.00;;;;;;5069749;28;20017;-61
2020/12/29 08:31:12;;;;;;;;;;;26.00;41.10;;;;;;5076908;28;20355;-61
2020/12/29 08:33:37;;;;;;;;;;;25.90;41.00;;;;;;5086731;28;20014;-62
2020/12/29 08:36:03;;;;;;;;;;;25.90;40.90;;;;;;5092664;28;19916;-61
2020/12/29 08:38:40;;;;;;;;;;;25.90;40.90;;;;;;5080165;28;20319;-61
2020/12/29 08:41:06;;;;;;;;;;;25.90;41.00;;;;;;5053906;28;19975;-61
2020/12/29 08:43:35;;;;;;;;;;;25.90;40.90;;;;;;5060909;28;20063;-62
2020/12/29 08:46:04;;;;;;;;;;;25.90;40.90;;;;;;5073147;28;20316;-61
2020/12/29 08:48:30;;;;;;;;;;;25.90;40.90;;;;;;5083849;28;19981;-61
2020/12/29 08:50:55;;;;;;;;;;;25.90;40.90;;;;;;5093491;28;20437;-64
2020/12/29 08:53:23;;;;;;;;;;;25.90;40.90;;;;;;5083996;28;19916;-61
2020/12/29 08:55:48;;;;;;;;;;;25.90;41.00;;;;;;5088989;28;20366;-61
2020/12/29 08:58:14;;;;;;;;;;;25.90;40.90;;;;;;5082889;28;19919;-61
2020/12/29 09:00:43;;;;;;;;;;;25.90;41.00;;;;;;5074494;28;19990;-61
2020/12/29 09:03:18;;;;;;;;;;;25.90;40.90;;;;;;5077937;28;19983;-61
2020/12/29 09:05:44;;;;;;;;;;;25.90;40.90;;;;;;5088801;28;19909;-61
2020/12/29 09:08:09;;;;;;;;;;;25.90;40.80;;;;;;5073937;28;19916;-62
2020/12/29 09:10:34;;;;;;;;;;;25.90;40.90;;;;;;5092161;28;20278;-61
2020/12/29 09:13:00;;;;;;;;;;;25.90;40.80;;;;;;5093123;28;19954;-61
2020/12/29 09:15:27;;;;;;;;;;;25.90;40.80;;;;;;5091367;28;19912;-61
2020/12/29 09:17:59;;;;;;;;;;;26.00;40.90;;;;;;5079887;28;19912;-61
2020/12/29 09:20:25;;;;;;;;;;;26.00;40.80;;;;;;5075286;28;19947;-61
2020/12/29 09:23:10;;;;;;;;;;;26.00;40.80;;;;;;5072807;28;19962;-61
2020/12/29 09:25:36;;;;;;;;;;;25.90;40.70;;;;;;5092868;28;19951;-61
2020/12/29 09:28:08;;;;;;;;;;;25.90;40.80;;;;;;5091196;28;19924;-62
2020/12/29 09:30:34;;;;;;;;;;;25.90;40.80;;;;;;5093341;28;19943;-62
2020/12/29 09:33:00;;;;;;;;;;;26.00;40.70;;;;;;5087619;28;19912;-61
2020/12/29 09:35:26;;;;;;;;;;;25.90;40.60;;;;;;5092252;28;20419;-61
2020/12/29 09:37:55;;;;;;;;;;;26.00;40.70;;;;;;5088885;28;20397;-61
2020/12/29 09:40:20;;;;;;;;;;;26.00;40.70;;;;;;5072801;28;19963;-61
2020/12/29 09:42:46;;;;;;;;;;;26.00;40.70;;;;;;5075356;28;19968;-61
2020/12/29 09:45:11;;;;;;;;;;;26.00;40.60;;;;;;5072614;28;19920;-61
2020/12/29 09:47:37;;;;;;;;;;;26.00;40.70;;;;;;5084395;28;19927;-61
2020/12/29 09:50:02;;;;;;;;;;;26.00;40.70;;;;;;5091380;28;19916;-61
2020/12/29 09:52:29;;;;;;;;;;;26.00;40.70;;;;;;5079571;28;19912;-61
2020/12/29 09:54:54;;;;;;;;;;;26.00;40.70;;;;;;5092924;28;19914;-61
2020/12/29 09:57:20;;;;;;;;;;;26.00;40.70;;;;;;5095382;28;19908;-61
2020/12/29 09:59:45;;;;;;;;;;;25.90;40.60;;;;;;5097105;28;19908;-61
2020/12/29 10:02:10;;;;;;;;;;;25.90;40.80;;;;;;5097060;28;20369;-62
2020/12/29 10:04:36;;;;;;;;;;;25.90;40.60;;;;;;5077900;28;19974;-62
2020/12/29 10:07:01;;;;;;;;;;;25.90;40.50;;;;;;5076976;28;19920;-61
2020/12/29 10:09:27;;;;;;;;;;;25.90;40.50;;;;;;5083425;28;20424;-61
2020/12/29 10:11:53;;;;;;;;;;;25.90;40.50;;;;;;5085421;28;19923;-62
2020/12/29 10:14:18;;;;;;;;;;;26.00;40.50;;;;;;5096531;28;19915;-61
2020/12/29 10:16:43;;;;;;;;;;;26.00;40.60;;;;;;5096502;28;19908;-61
2020/12/29 10:19:09;;;;;;;;;;;25.90;40.60;;;;;;5080618;28;20255;-61
2020/12/29 10:21:35;;;;;;;;;;;25.90;40.60;;;;;;5080840;28;19913;-61
2020/12/29 10:24:00;;;;;;;;;;;25.90;40.60;;;;;;5090463;28;19965;-61
2020/12/29 10:26:25;;;;;;;;;;;25.90;40.60;;;;;;5096626;28;19916;-61
2020/12/29 10:28:51;;;;;;;;;;;25.90;40.60;;;;;;5094510;28;20362;-61
2020/12/29 10:31:16;;;;;;;;;;;25.90;40.60;;;;;;5096477;28;20377;-61
2020/12/29 10:33:42;;;;;;;;;;;25.90;40.60;;;;;;5090328;28;19965;-61
2020/12/29 10:36:08;;;;;;;;;;;25.90;40.60;;;;;;5096163;28;19916;-62
2020/12/29 10:38:33;;;;;;;;;;;25.90;40.50;;;;;;5086475;28;20316;-61
2020/12/29 10:40:58;;;;;;;;;;;26.00;40.50;;;;;;5096157;28;19991;-61
2020/12/29 10:43:24;;;;;;;;;;;26.00;40.50;;;;;;5084908;28;19921;-62
2020/12/29 10:45:49;;;;;;;;;;;25.90;40.50;;;;;;5075604;28;19951;-61
2020/12/29 10:48:15;;;;;;;;;;;25.90;40.50;;;;;;5090686;28;19912;-61
2020/12/29 10:50:40;;;;;;;;;;;25.90;40.50;;;;;;5096230;28;19973;-61
2020/12/29 10:53:06;;;;;;;;;;;25.90;40.50;;;;;;5092238;28;20402;-61
2020/12/29 10:55:31;;;;;;;;;;;26.00;40.50;;;;;;5095931;28;19915;-61
2020/12/29 10:57:57;;;;;;;;;;;26.00;40.50;;;;;;5090047;28;20313;-61
2020/12/29 11:00:22;;;;;;;;;;;25.90;40.50;;;;;;5080111;28;19920;-61
2020/12/29 11:02:48;;;;;;;;;;;25.90;40.50;;;;;;5079755;28;20726;-61
2020/12/29 11:05:13;;;;;;;;;;;25.90;40.50;;;;;;5095547;28;19958;-61
2020/12/29 11:07:39;;;;;;;;;;;25.90;40.40;;;;;;5094971;28;19919;-61
2020/12/29 11:10:04;;;;;;;;;;;25.90;40.50;;;;;;5083373;28;19935;-61
2020/12/29 11:12:29;;;;;;;;;;;25.90;40.50;;;;;;5075600;28;19951;-61
2020/12/29 11:14:55;;;;;;;;;;;25.90;40.50;;;;;;5083840;28;19974;-62
2020/12/29 11:17:21;;;;;;;;;;;26.00;40.50;;;;;;5083546;28;19912;-61
2020/12/29 11:19:46;;;;;;;;;;;26.00;40.40;;;;;;5095498;28;20323;-61
2020/12/29 11:22:12;;;;;;;;;;;26.00;40.40;;;;;;5095223;28;20354;-61
2020/12/29 11:24:37;;;;;;;;;;;26.00;40.40;;;;;;5074960;28;19978;-61
2020/12/29 11:27:03;;;;;;;;;;;26.00;40.50;;;;;;5074955;28;19908;-61
2020/12/29 11:29:28;;;;;;;;;;;25.90;40.40;;;;;;5093014;28;19974;-61
2020/12/29 11:31:54;;;;;;;;;;;25.90;40.50;;;;;;5095345;28;19919;-61
2020/12/29 11:34:19;;;;;;;;;;;25.90;40.50;;;;;;5088007;28;20372;-59
2020/12/29 11:36:45;;;;;;;;;;;25.90;40.70;;;;;;5095144;28;19908;-58
2020/12/29 11:39:10;;;;;;;;;;;25.80;40.80;;;;;;5088645;28;20295;-57
2020/12/29 11:41:35;;;;;;;;;;;25.90;40.80;;;;;;5091907;28;19912;-58
2020/12/29 11:44:01;;;;;;;;;;;25.90;40.70;;;;;;5089174;28;19920;-58
2020/12/29 11:46:26;;;;;;;;;;;25.90;40.70;;;;;;5087083;28;19952;-59
2020/12/29 11:48:52;;;;;;;;;;;25.90;40.70;;;;;;5074781;28;19939;-67
2020/12/29 11:51:18;;;;;;;;;;;26.00;41.30;;;;;;5074700;28;19912;-58
2020/12/29 11:53:43;;;;;;;;;;;25.90;41.00;;;;;;5086584;28;20204;-58
2020/12/29 11:56:09;;;;;;;;;;;25.90;41.10;;;;;;5093046;28;20007;-58
2020/12/29 11:58:34;;;;;;;;;;;25.90;41.20;;;;;;5084985;28;19966;-58
2020/12/29 12:01:00;;;;;;;;;;;26.00;41.30;;;;;;5094520;28;19912;-60
2020/12/29 12:03:25;;;;;;;;;;;25.90;41.30;;;;;;5092619;28;20022;-59
2020/12/29 12:05:51;;;;;;;;;;;25.90;41.40;;;;;;5094826;28;19916;-59
2020/12/29 12:08:16;;;;;;;;;;;25.90;41.50;;;;;;5087112;28;20269;-60
2020/12/29 12:10:42;;;;;;;;;;;25.90;41.90;;;;;;5074191;28;19909;-61
2020/12/29 12:13:07;;;;;;;;;;;25.90;41.90;;;;;;5083109;28;19916;-63
2020/12/29 12:15:33;;;;;;;;;;;25.90;41.80;;;;;;5094600;28;19981;-57
2020/12/29 12:17:58;;;;;;;;;;;25.90;42.10;;;;;;5083396;28;20007;-60
2020/12/29 12:20:24;;;;;;;;;;;25.80;42.50;;;;;;5073154;28;20385;-61
2020/12/29 12:22:49;;;;;;;;;;;25.80;42.40;;;;;;5088176;28;19926;-61
2020/12/29 12:25:14;;;;;;;;;;;25.90;42.30;;;;;;5073869;28;19918;-60
2020/12/29 12:27:40;;;;;;;;;;;25.90;42.40;;;;;;5073533;28;20341;-60
2020/12/29 12:30:05;;;;;;;;;;;25.90;42.20;;;;;;5073670;28;19909;-59
2020/12/29 12:32:31;;;;;;;;;;;25.90;42.10;;;;;;5075759;28;20370;-59
2020/12/29 12:34:56;;;;;;;;;;;25.90;42.10;;;;;;5093139;28;20018;-59
2020/12/29 12:37:22;;;;;;;;;;;26.00;42.10;;;;;;5092918;28;19909;-60
2020/12/29 12:39:47;;;;;;;;;;;25.90;42.00;;;;;;5089402;28;20358;-60
2020/12/29 12:42:13;;;;;;;;;;;26.00;42.00;;;;;;5091753;28;19935;-59
2020/12/29 12:44:39;;;;;;;;;;;26.00;42.00;;;;;;5088944;28;19995;-63
2020/12/29 12:47:05;;;;;;;;;;;26.00;42.00;;;;;;5087705;28;19912;-58
2020/12/29 12:49:31;;;;;;;;;;;26.00;41.90;;;;;;5082312;28;19924;-58
2020/12/29 12:51:56;;;;;;;;;;;26.00;41.80;;;;;;5093696;28;19908;-59
2020/12/29 12:54:22;;;;;;;;;;;26.10;41.90;;;;;;5093783;28;19908;-58
2020/12/29 12:56:51;;;;;;;;;;;26.10;41.90;;;;;;5093466;28;19916;-60
2020/12/29 12:59:16;;;;;;;;;;;26.00;41.80;;;;;;5079201;28;19927;-59
2020/12/29 13:01:42;;;;;;;;;;;26.00;41.80;;;;;;5093440;28;19908;-58
2020/12/29 13:04:07;;;;;;;;;;;26.00;41.80;;;;;;5076610;28;19924;-60
2020/12/29 13:06:33;;;;;;;;;;;26.00;41.70;;;;;;5073188;28;19915;-58
2020/12/29 13:08:58;;;;;;;;;;;26.00;41.70;;;;;;5078484;28;19958;-57
2020/12/29 13:11:24;;;;;;;;;;;26.00;41.80;;;;;;5073246;28;20327;-59
2020/12/29 13:13:49;;;;;;;;;;;25.90;41.80;;;;;;5088912;28;19981;-58
2020/12/29 13:16:18;;;;;;;;;;;26.00;41.80;;;;;;5093461;28;20381;-58
2020/12/29 13:18:44;;;;;;;;;;;26.00;41.60;;;;;;5080750;28;19912;-58
2020/12/29 13:21:10;;;;;;;;;;;26.00;41.60;;;;;;5073420;28;19913;-58
2020/12/29 13:23:35;;;;;;;;;;;26.00;41.60;;;;;;5072743;28;19971;-59
2020/12/29 13:26:01;;;;;;;;;;;26.00;41.60;;;;;;5087705;28;19961;-58
2020/12/29 13:28:26;;;;;;;;;;;25.90;41.60;;;;;;5082655;28;20342;-59
2020/12/29 13:30:52;;;;;;;;;;;26.00;41.60;;;;;;5072524;28;20441;-61
2020/12/29 13:33:17;;;;;;;;;;;26.00;41.60;;;;;;5075889;28;19924;-59
2020/12/29 13:35:43;;;;;;;;;;;25.90;41.50;;;;;;5084422;28;19912;-59
2020/12/29 13:38:09;;;;;;;;;;;25.90;41.60;;;;;;5077181;28;19912;-59
2020/12/29 13:40:34;;;;;;;;;;;26.00;41.60;;;;;;5080460;28;20354;-58
2020/12/29 13:43:00;;;;;;;;;;;26.00;41.60;;;;;;5083443;28;19927;-59
2020/12/29 13:45:25;;;;;;;;;;;26.00;41.50;;;;;;5093039;28;19908;-58
2020/12/29 13:47:51;;;;;;;;;;;25.90;41.50;;;;;;5078640;28;19919;-61
2020/12/29 13:50:16;;;;;;;;;;;25.90;41.40;;;;;;5072704;28;19919;-59
2020/12/29 13:52:42;;;;;;;;;;;26.00;41.50;;;;;;5077597;28;20353;-58
2020/12/29 13:55:07;;;;;;;;;;;26.00;41.40;;;;;;5092720;28;19918;-58
2020/12/29 13:57:33;;;;;;;;;;;26.00;41.50;;;;;;5090316;28;19977;-58
2020/12/29 13:59:58;;;;;;;;;;;26.00;41.40;;;;;;5072500;28;19909;-61
2020/12/29 14:02:24;;;;;;;;;;;26.00;41.50;;;;;;5084087;28;19912;-60
2020/12/29 14:04:49;;;;;;;;;;;25.90;41.40;;;;;;5073180;28;20294;-60
2020/12/29 14:07:15;;;;;;;;;;;25.90;41.40;;;;;;5072482;28;20007;-59
2020/12/29 14:09:40;;;;;;;;;;;26.00;41.50;;;;;;5072634;28;20362;-59